sensor_id;sensor_type;location;lat;lon;timestamp;P1;durP1;ratioP1;P2;durP2;ratioP2
26311;SDS011;14019;56.964;24.016;2023-10-19T00:01:42;17.90;;;9.35;;
26311;SDS011;14019;56.964;24.016;2023-10-19T00:04:29;17.95;;;8.98;;
26311;SDS011;14019;56.964;24.016;2023-10-19T00:07:18;14.05;;;7.45;;
26311;SDS011;14019;56.964;24.016;2023-10-19T00:10:04;15.25;;;8.52;;
26311;SDS011;14019;56.964;24.016;2023-10-19T00:12:51;15.43;;;7.78;;
26311;SDS011;14019;56.964;24.016;2023-10-19T00:15:45;15.10;;;7.85;;
26311;SDS011;14019;56.964;24.016;2023-10-19T00:18:38;15.93;;;7.13;;
26311;SDS011;14019;56.964;24.016;2023-10-19T00:21:28;13.40;;;7.10;;
26311;SDS011;14019;56.964;24.016;2023-10-19T00:24:19;13.75;;;6.57;;
26311;SDS011;14019;56.964;24.016;2023-10-19T00:27:07;11.93;;;6.38;;
26311;SDS011;14019;56.964;24.016;2023-10-19T00:30:02;14.02;;;5.80;;
26311;SDS011;14019;56.964;24.016;2023-10-19T00:32:52;12.73;;;6.32;;
26311;SDS011;14019;56.964;24.016;2023-10-19T00:35:39;10.93;;;6.10;;
26311;SDS011;14019;56.964;24.016;2023-10-19T00:38:32;13.13;;;5.97;;
26311;SDS011;14019;56.964;24.016;2023-10-19T00:41:22;12.38;;;5.93;;
26311;SDS011;14019;56.964;24.016;2023-10-19T00:44:15;11.10;;;5.65;;
26311;SDS011;14019;56.964;24.016;2023-10-19T00:47:08;17.77;;;7.82;;
26311;SDS011;14019;56.964;24.016;2023-10-19T00:50:04;10.57;;;5.35;;
26311;SDS011;14019;56.964;24.016;2023-10-19T00:52:50;9.60;;;5.13;;
26311;SDS011;14019;56.964;24.016;2023-10-19T00:55:37;12.38;;;5.57;;
26311;SDS011;14019;56.964;24.016;2023-10-19T00:58:24;16.52;;;6.57;;
26311;SDS011;14019;56.964;24.016;2023-10-19T01:01:15;16.40;;;7.20;;
26311;SDS011;14019;56.964;24.016;2023-10-19T01:04:03;17.17;;;8.02;;
26311;SDS011;14019;56.964;24.016;2023-10-19T01:06:49;16.27;;;8.30;;
26311;SDS011;14019;56.964;24.016;2023-10-19T01:09:55;10.43;;;5.38;;
26311;SDS011;14019;56.964;24.016;2023-10-19T01:12:42;10.95;;;5.70;;
26311;SDS011;14019;56.964;24.016;2023-10-19T01:15:28;13.32;;;6.70;;
26311;SDS011;14019;56.964;24.016;2023-10-19T01:18:15;13.27;;;5.55;;
26311;SDS011;14019;56.964;24.016;2023-10-19T01:21:02;10.25;;;4.55;;
26311;SDS011;14019;56.964;24.016;2023-10-19T01:23:50;9.57;;;4.20;;
26311;SDS011;14019;56.964;24.016;2023-10-19T01:26:36;10.70;;;5.30;;
26311;SDS011;14019;56.964;24.016;2023-10-19T01:29:23;13.95;;;6.80;;
26311;SDS011;14019;56.964;24.016;2023-10-19T01:32:12;10.93;;;5.78;;
26311;SDS011;14019;56.964;24.016;2023-10-19T01:35:00;13.98;;;6.18;;
26311;SDS011;14019;56.964;24.016;2023-10-19T01:37:47;13.15;;;6.93;;
26311;SDS011;14019;56.964;24.016;2023-10-19T01:40:33;12.57;;;6.10;;
26311;SDS011;14019;56.964;24.016;2023-10-19T01:43:20;11.98;;;5.78;;
26311;SDS011;14019;56.964;24.016;2023-10-19T01:46:07;12.30;;;6.05;;
26311;SDS011;14019;56.964;24.016;2023-10-19T01:49:07;14.02;;;7.13;;
26311;SDS011;14019;56.964;24.016;2023-10-19T01:51:53;13.05;;;6.78;;
26311;SDS011;14019;56.964;24.016;2023-10-19T01:54:40;13.63;;;6.47;;
26311;SDS011;14019;56.964;24.016;2023-10-19T01:57:28;11.10;;;6.03;;
26311;SDS011;14019;56.964;24.016;2023-10-19T02:00:14;9.75;;;5.53;;
26311;SDS011;14019;56.964;24.016;2023-10-19T02:03:09;9.98;;;5.60;;
26311;SDS011;14019;56.964;24.016;2023-10-19T02:05:58;12.45;;;5.90;;
26311;SDS011;14019;56.964;24.016;2023-10-19T02:08:50;11.57;;;5.60;;
26311;SDS011;14019;56.964;24.016;2023-10-19T02:11:37;12.30;;;6.20;;
26311;SDS011;14019;56.964;24.016;2023-10-19T02:14:27;12.35;;;6.47;;
26311;SDS011;14019;56.964;24.016;2023-10-19T02:17:17;9.82;;;5.75;;
26311;SDS011;14019;56.964;24.016;2023-10-19T02:20:04;11.15;;;5.80;;
26311;SDS011;14019;56.964;24.016;2023-10-19T02:23:24;11.95;;;5.43;;
26311;SDS011;14019;56.964;24.016;2023-10-19T02:26:10;13.23;;;5.63;;
26311;SDS011;14019;56.964;24.016;2023-10-19T02:29:01;11.13;;;5.00;;
26311;SDS011;14019;56.964;24.016;2023-10-19T02:31:52;15.23;;;5.38;;
26311;SDS011;14019;56.964;24.016;2023-10-19T02:34:41;13.50;;;6.43;;
26311;SDS011;14019;56.964;24.016;2023-10-19T02:37:28;16.13;;;7.75;;
26311;SDS011;14019;56.964;24.016;2023-10-19T02:40:15;21.25;;;10.07;;
26311;SDS011;14019;56.964;24.016;2023-10-19T02:43:05;25.08;;;11.18;;
26311;SDS011;14019;56.964;24.016;2023-10-19T02:45:51;23.90;;;10.70;;
26311;SDS011;14019;56.964;24.016;2023-10-19T02:48:37;21.13;;;9.68;;
26311;SDS011;14019;56.964;24.016;2023-10-19T02:51:23;21.05;;;9.95;;
26311;SDS011;14019;56.964;24.016;2023-10-19T02:54:12;19.35;;;9.35;;
26311;SDS011;14019;56.964;24.016;2023-10-19T02:57:05;21.65;;;10.57;;
26311;SDS011;14019;56.964;24.016;2023-10-19T02:59:57;21.77;;;10.65;;
26311;SDS011;14019;56.964;24.016;2023-10-19T03:02:44;20.73;;;9.85;;
26311;SDS011;14019;56.964;24.016;2023-10-19T03:05:31;20.92;;;9.80;;
26311;SDS011;14019;56.964;24.016;2023-10-19T03:08:19;21.60;;;10.23;;
26311;SDS011;14019;56.964;24.016;2023-10-19T03:11:06;18.48;;;9.82;;
26311;SDS011;14019;56.964;24.016;2023-10-19T03:13:52;20.90;;;9.73;;
26311;SDS011;14019;56.964;24.016;2023-10-19T03:16:39;21.30;;;10.48;;
26311;SDS011;14019;56.964;24.016;2023-10-19T03:19:46;22.65;;;10.68;;
26311;SDS011;14019;56.964;24.016;2023-10-19T03:22:34;23.75;;;10.90;;
26311;SDS011;14019;56.964;24.016;2023-10-19T03:25:21;21.52;;;10.10;;
26311;SDS011;14019;56.964;24.016;2023-10-19T03:28:26;21.77;;;10.63;;
26311;SDS011;14019;56.964;24.016;2023-10-19T03:31:14;20.23;;;9.57;;
26311;SDS011;14019;56.964;24.016;2023-10-19T03:34:20;19.48;;;9.77;;
26311;SDS011;14019;56.964;24.016;2023-10-19T03:37:09;20.45;;;10.15;;
26311;SDS011;14019;56.964;24.016;2023-10-19T03:39:59;19.65;;;9.45;;
26311;SDS011;14019;56.964;24.016;2023-10-19T03:42:50;17.77;;;8.98;;
26311;SDS011;14019;56.964;24.016;2023-10-19T03:45:39;18.20;;;8.63;;
26311;SDS011;14019;56.964;24.016;2023-10-19T03:48:32;14.43;;;7.05;;
26311;SDS011;14019;56.964;24.016;2023-10-19T03:51:27;13.35;;;6.50;;
26311;SDS011;14019;56.964;24.016;2023-10-19T03:54:25;17.20;;;7.82;;
26311;SDS011;14019;56.964;24.016;2023-10-19T03:57:15;14.23;;;7.20;;
26311;SDS011;14019;56.964;24.016;2023-10-19T04:00:05;12.07;;;6.25;;
26311;SDS011;14019;56.964;24.016;2023-10-19T04:03:03;11.93;;;6.40;;
26311;SDS011;14019;56.964;24.016;2023-10-19T04:05:54;14.35;;;7.13;;
26311;SDS011;14019;56.964;24.016;2023-10-19T04:08:41;13.30;;;6.40;;
26311;SDS011;14019;56.964;24.016;2023-10-19T04:11:28;14.60;;;6.93;;
26311;SDS011;14019;56.964;24.016;2023-10-19T04:14:18;15.38;;;7.35;;
26311;SDS011;14019;56.964;24.016;2023-10-19T04:17:07;14.80;;;6.97;;
26311;SDS011;14019;56.964;24.016;2023-10-19T04:19:57;15.90;;;7.20;;
26311;SDS011;14019;56.964;24.016;2023-10-19T04:22:47;18.48;;;7.70;;
26311;SDS011;14019;56.964;24.016;2023-10-19T04:25:34;13.27;;;6.88;;
26311;SDS011;14019;56.964;24.016;2023-10-19T04:28:21;14.60;;;7.65;;
26311;SDS011;14019;56.964;24.016;2023-10-19T04:31:16;12.77;;;6.90;;
26311;SDS011;14019;56.964;24.016;2023-10-19T04:34:04;13.43;;;6.43;;
26311;SDS011;14019;56.964;24.016;2023-10-19T04:36:55;13.00;;;6.25;;
26311;SDS011;14019;56.964;24.016;2023-10-19T04:39:42;10.93;;;5.82;;
26311;SDS011;14019;56.964;24.016;2023-10-19T04:42:29;10.88;;;5.40;;
26311;SDS011;14019;56.964;24.016;2023-10-19T04:45:18;11.60;;;5.32;;
26311;SDS011;14019;56.964;24.016;2023-10-19T04:48:04;11.80;;;5.43;;
26311;SDS011;14019;56.964;24.016;2023-10-19T04:50:51;14.55;;;5.40;;
26311;SDS011;14019;56.964;24.016;2023-10-19T04:53:37;12.52;;;6.00;;
26311;SDS011;14019;56.964;24.016;2023-10-19T04:56:24;14.45;;;6.32;;
26311;SDS011;14019;56.964;24.016;2023-10-19T04:59:10;12.38;;;5.63;;
26311;SDS011;14019;56.964;24.016;2023-10-19T05:01:56;17.17;;;6.28;;
26311;SDS011;14019;56.964;24.016;2023-10-19T05:04:44;15.15;;;6.18;;
26311;SDS011;14019;56.964;24.016;2023-10-19T05:07:31;13.15;;;5.95;;
26311;SDS011;14019;56.964;24.016;2023-10-19T05:10:18;14.75;;;6.00;;
26311;SDS011;14019;56.964;24.016;2023-10-19T05:13:05;14.48;;;5.57;;
26311;SDS011;14019;56.964;24.016;2023-10-19T05:15:55;14.35;;;5.45;;
26311;SDS011;14019;56.964;24.016;2023-10-19T05:18:44;12.38;;;5.82;;
26311;SDS011;14019;56.964;24.016;2023-10-19T05:21:30;11.18;;;5.68;;
26311;SDS011;14019;56.964;24.016;2023-10-19T05:24:19;11.93;;;4.95;;
26311;SDS011;14019;56.964;24.016;2023-10-19T05:27:05;11.75;;;5.43;;
26311;SDS011;14019;56.964;24.016;2023-10-19T05:29:56;10.60;;;4.97;;
26311;SDS011;14019;56.964;24.016;2023-10-19T05:32:43;13.13;;;5.07;;
26311;SDS011;14019;56.964;24.016;2023-10-19T05:35:31;14.45;;;5.50;;
26311;SDS011;14019;56.964;24.016;2023-10-19T05:38:25;10.98;;;5.45;;
26311;SDS011;14019;56.964;24.016;2023-10-19T05:41:12;12.00;;;5.97;;
26311;SDS011;14019;56.964;24.016;2023-10-19T05:43:59;15.90;;;6.22;;
26311;SDS011;14019;56.964;24.016;2023-10-19T05:46:46;13.43;;;5.25;;
26311;SDS011;14019;56.964;24.016;2023-10-19T05:49:32;12.82;;;5.32;;
26311;SDS011;14019;56.964;24.016;2023-10-19T05:52:19;13.68;;;5.85;;
26311;SDS011;14019;56.964;24.016;2023-10-19T05:55:05;13.85;;;6.50;;
26311;SDS011;14019;56.964;24.016;2023-10-19T05:57:52;15.15;;;6.03;;
26311;SDS011;14019;56.964;24.016;2023-10-19T06:00:39;12.70;;;5.72;;
26311;SDS011;14019;56.964;24.016;2023-10-19T06:03:26;14.27;;;6.85;;
26311;SDS011;14019;56.964;24.016;2023-10-19T06:06:13;17.27;;;6.25;;
26311;SDS011;14019;56.964;24.016;2023-10-19T06:09:00;26.95;;;7.82;;
26311;SDS011;14019;56.964;24.016;2023-10-19T06:11:47;19.05;;;7.97;;
26311;SDS011;14019;56.964;24.016;2023-10-19T06:14:35;20.88;;;8.50;;
26311;SDS011;14019;56.964;24.016;2023-10-19T06:17:23;19.60;;;8.05;;
26311;SDS011;14019;56.964;24.016;2023-10-19T06:20:10;15.82;;;7.57;;
26311;SDS011;14019;56.964;24.016;2023-10-19T06:23:09;15.50;;;6.63;;
26311;SDS011;14019;56.964;24.016;2023-10-19T06:25:57;12.43;;;6.22;;
26311;SDS011;14019;56.964;24.016;2023-10-19T06:28:45;13.18;;;5.78;;
26311;SDS011;14019;56.964;24.016;2023-10-19T06:31:31;14.77;;;6.90;;
26311;SDS011;14019;56.964;24.016;2023-10-19T06:34:18;16.65;;;6.47;;
26311;SDS011;14019;56.964;24.016;2023-10-19T06:37:04;24.73;;;10.63;;
26311;SDS011;14019;56.964;24.016;2023-10-19T06:39:53;22.85;;;10.27;;
26311;SDS011;14019;56.964;24.016;2023-10-19T06:42:40;23.02;;;11.50;;
26311;SDS011;14019;56.964;24.016;2023-10-19T06:45:27;17.55;;;7.82;;
26311;SDS011;14019;56.964;24.016;2023-10-19T06:48:14;15.85;;;6.82;;
26311;SDS011;14019;56.964;24.016;2023-10-19T06:51:01;19.40;;;7.20;;
26311;SDS011;14019;56.964;24.016;2023-10-19T06:53:47;14.95;;;6.65;;
26311;SDS011;14019;56.964;24.016;2023-10-19T06:56:33;12.80;;;5.88;;
26311;SDS011;14019;56.964;24.016;2023-10-19T06:59:22;14.65;;;6.00;;
26311;SDS011;14019;56.964;24.016;2023-10-19T07:02:09;12.38;;;6.10;;
26311;SDS011;14019;56.964;24.016;2023-10-19T07:04:58;12.10;;;5.70;;
26311;SDS011;14019;56.964;24.016;2023-10-19T07:07:46;13.80;;;5.68;;
26311;SDS011;14019;56.964;24.016;2023-10-19T07:10:32;11.27;;;5.40;;
26311;SDS011;14019;56.964;24.016;2023-10-19T07:13:20;12.30;;;5.70;;
26311;SDS011;14019;56.964;24.016;2023-10-19T07:16:06;12.63;;;5.55;;
26311;SDS011;14019;56.964;24.016;2023-10-19T07:18:56;11.68;;;5.95;;
26311;SDS011;14019;56.964;24.016;2023-10-19T07:21:44;12.05;;;5.38;;
26311;SDS011;14019;56.964;24.016;2023-10-19T07:24:34;9.30;;;5.25;;
26311;SDS011;14019;56.964;24.016;2023-10-19T07:27:21;9.40;;;4.95;;
26311;SDS011;14019;56.964;24.016;2023-10-19T07:30:22;11.15;;;4.57;;
26311;SDS011;14019;56.964;24.016;2023-10-19T07:33:12;17.52;;;5.25;;
26311;SDS011;14019;56.964;24.016;2023-10-19T07:36:12;13.93;;;5.20;;
26311;SDS011;14019;56.964;24.016;2023-10-19T07:39:00;9.25;;;4.90;;
26311;SDS011;14019;56.964;24.016;2023-10-19T07:44:57;13.52;;;5.50;;
26311;SDS011;14019;56.964;24.016;2023-10-19T07:47:45;11.90;;;5.50;;
26311;SDS011;14019;56.964;24.016;2023-10-19T07:50:32;11.95;;;4.85;;
26311;SDS011;14019;56.964;24.016;2023-10-19T07:53:19;13.82;;;5.30;;
26311;SDS011;14019;56.964;24.016;2023-10-19T07:56:07;17.45;;;5.65;;
26311;SDS011;14019;56.964;24.016;2023-10-19T07:58:53;14.90;;;5.10;;
26311;SDS011;14019;56.964;24.016;2023-10-19T08:01:40;10.05;;;5.00;;
26311;SDS011;14019;56.964;24.016;2023-10-19T08:04:30;12.55;;;4.95;;
26311;SDS011;14019;56.964;24.016;2023-10-19T08:07:19;10.80;;;5.28;;
26311;SDS011;14019;56.964;24.016;2023-10-19T08:10:06;9.88;;;4.88;;
26311;SDS011;14019;56.964;24.016;2023-10-19T08:12:54;10.85;;;5.28;;
26311;SDS011;14019;56.964;24.016;2023-10-19T08:15:40;13.70;;;5.25;;
26311;SDS011;14019;56.964;24.016;2023-10-19T08:18:27;10.50;;;4.30;;
26311;SDS011;14019;56.964;24.016;2023-10-19T08:21:15;8.85;;;4.25;;
26311;SDS011;14019;56.964;24.016;2023-10-19T08:24:03;8.57;;;4.10;;
26311;SDS011;14019;56.964;24.016;2023-10-19T08:26:49;8.10;;;3.78;;
26311;SDS011;14019;56.964;24.016;2023-10-19T08:29:36;6.30;;;3.47;;
26311;SDS011;14019;56.964;24.016;2023-10-19T08:32:24;8.00;;;3.13;;
26311;SDS011;14019;56.964;24.016;2023-10-19T08:35:11;6.90;;;3.42;;
26311;SDS011;14019;56.964;24.016;2023-10-19T08:38:00;12.27;;;3.97;;
26311;SDS011;14019;56.964;24.016;2023-10-19T08:40:49;7.55;;;3.33;;
26311;SDS011;14019;56.964;24.016;2023-10-19T08:43:36;7.05;;;3.00;;
26311;SDS011;14019;56.964;24.016;2023-10-19T08:46:24;9.15;;;3.20;;
26311;SDS011;14019;56.964;24.016;2023-10-19T08:49:11;7.30;;;2.85;;
26311;SDS011;14019;56.964;24.016;2023-10-19T08:51:58;7.40;;;3.22;;
26311;SDS011;14019;56.964;24.016;2023-10-19T08:54:44;10.15;;;2.92;;
26311;SDS011;14019;56.964;24.016;2023-10-19T08:57:30;6.70;;;2.75;;
26311;SDS011;14019;56.964;24.016;2023-10-19T09:00:17;9.90;;;3.17;;
26311;SDS011;14019;56.964;24.016;2023-10-19T09:03:04;6.03;;;2.88;;
26311;SDS011;14019;56.964;24.016;2023-10-19T09:05:52;8.95;;;3.08;;
26311;SDS011;14019;56.964;24.016;2023-10-19T09:08:40;6.00;;;2.75;;
26311;SDS011;14019;56.964;24.016;2023-10-19T09:11:27;6.85;;;3.00;;
26311;SDS011;14019;56.964;24.016;2023-10-19T09:14:14;7.82;;;3.38;;
26311;SDS011;14019;56.964;24.016;2023-10-19T09:17:03;6.30;;;3.45;;
26311;SDS011;14019;56.964;24.016;2023-10-19T09:19:53;7.45;;;3.53;;
26311;SDS011;14019;56.964;24.016;2023-10-19T09:22:41;5.60;;;3.15;;
26311;SDS011;14019;56.964;24.016;2023-10-19T09:25:29;5.88;;;2.95;;
26311;SDS011;14019;56.964;24.016;2023-10-19T09:28:16;7.65;;;3.05;;
26311;SDS011;14019;56.964;24.016;2023-10-19T09:31:02;6.25;;;2.80;;
26311;SDS011;14019;56.964;24.016;2023-10-19T09:33:50;8.93;;;3.00;;
26311;SDS011;14019;56.964;24.016;2023-10-19T09:36:38;6.38;;;3.03;;
26311;SDS011;14019;56.964;24.016;2023-10-19T09:39:25;6.68;;;2.50;;
26311;SDS011;14019;56.964;24.016;2023-10-19T09:42:12;10.18;;;2.70;;
26311;SDS011;14019;56.964;24.016;2023-10-19T09:45:03;7.72;;;2.78;;
26311;SDS011;14019;56.964;24.016;2023-10-19T09:47:51;7.45;;;2.85;;
26311;SDS011;14019;56.964;24.016;2023-10-19T09:50:40;7.28;;;3.00;;
26311;SDS011;14019;56.964;24.016;2023-10-19T09:53:27;4.63;;;2.55;;
26311;SDS011;14019;56.964;24.016;2023-10-19T09:56:19;7.40;;;2.65;;
26311;SDS011;14019;56.964;24.016;2023-10-19T09:59:56;8.15;;;3.30;;
26311;SDS011;14019;56.964;24.016;2023-10-19T10:02:14;6.35;;;2.65;;
26311;SDS011;14019;56.964;24.016;2023-10-19T10:05:03;7.85;;;2.42;;
26311;SDS011;14019;56.964;24.016;2023-10-19T10:08:13;8.15;;;2.40;;
26311;SDS011;14019;56.964;24.016;2023-10-19T10:10:56;7.38;;;2.45;;
26311;SDS011;14019;56.964;24.016;2023-10-19T10:13:55;5.63;;;2.50;;
26311;SDS011;14019;56.964;24.016;2023-10-19T10:23:15;7.18;;;2.58;;
26311;SDS011;14019;56.964;24.016;2023-10-19T10:26:02;6.88;;;2.92;;
26311;SDS011;14019;56.964;24.016;2023-10-19T10:29:07;8.27;;;3.10;;
26311;SDS011;14019;56.964;24.016;2023-10-19T10:31:58;6.95;;;3.10;;
26311;SDS011;14019;56.964;24.016;2023-10-19T10:34:45;6.70;;;3.03;;
26311;SDS011;14019;56.964;24.016;2023-10-19T10:37:37;6.72;;;3.45;;
26311;SDS011;14019;56.964;24.016;2023-10-19T10:40:25;8.25;;;3.47;;
26311;SDS011;14019;56.964;24.016;2023-10-19T10:43:11;8.02;;;3.40;;
26311;SDS011;14019;56.964;24.016;2023-10-19T10:46:04;8.70;;;3.08;;
26311;SDS011;14019;56.964;24.016;2023-10-19T10:48:52;10.23;;;3.50;;
26311;SDS011;14019;56.964;24.016;2023-10-19T10:51:40;9.30;;;3.28;;
26311;SDS011;14019;56.964;24.016;2023-10-19T10:54:29;7.07;;;3.22;;
26311;SDS011;14019;56.964;24.016;2023-10-19T10:57:16;9.05;;;3.58;;
26311;SDS011;14019;56.964;24.016;2023-10-19T11:00:09;6.53;;;3.17;;
26311;SDS011;14019;56.964;24.016;2023-10-19T11:05:51;7.65;;;3.42;;
26311;SDS011;14019;56.964;24.016;2023-10-19T11:08:38;7.68;;;3.47;;
26311;SDS011;14019;56.964;24.016;2023-10-19T11:11:25;12.35;;;3.70;;
26311;SDS011;14019;56.964;24.016;2023-10-19T11:14:13;7.78;;;3.17;;
26311;SDS011;14019;56.964;24.016;2023-10-19T11:17:12;6.05;;;3.22;;
26311;SDS011;14019;56.964;24.016;2023-10-19T11:20:01;8.73;;;3.17;;
26311;SDS011;14019;56.964;24.016;2023-10-19T11:22:54;6.07;;;2.90;;
26311;SDS011;14019;56.964;24.016;2023-10-19T11:25:57;7.28;;;2.05;;
26311;SDS011;14019;56.964;24.016;2023-10-19T11:28:56;6.35;;;3.00;;
26311;SDS011;14019;56.964;24.016;2023-10-19T11:31:56;6.45;;;2.60;;
26311;SDS011;14019;56.964;24.016;2023-10-19T11:35:00;6.85;;;2.67;;
26311;SDS011;14019;56.964;24.016;2023-10-19T11:37:47;5.93;;;2.10;;
26311;SDS011;14019;56.964;24.016;2023-10-19T11:40:33;3.63;;;1.80;;
26311;SDS011;14019;56.964;24.016;2023-10-19T11:43:22;4.07;;;2.00;;
26311;SDS011;14019;56.964;24.016;2023-10-19T11:46:09;4.70;;;2.25;;
26311;SDS011;14019;56.964;24.016;2023-10-19T11:48:57;3.88;;;1.90;;
26311;SDS011;14019;56.964;24.016;2023-10-19T11:51:44;8.20;;;1.85;;
26311;SDS011;14019;56.964;24.016;2023-10-19T11:54:31;5.50;;;1.90;;
26311;SDS011;14019;56.964;24.016;2023-10-19T11:57:17;5.32;;;2.00;;
26311;SDS011;14019;56.964;24.016;2023-10-19T12:00:05;6.38;;;1.90;;
26311;SDS011;14019;56.964;24.016;2023-10-19T12:02:53;4.80;;;2.10;;
26311;SDS011;14019;56.964;24.016;2023-10-19T12:05:40;3.50;;;2.05;;
26311;SDS011;14019;56.964;24.016;2023-10-19T12:08:27;5.28;;;2.00;;
26311;SDS011;14019;56.964;24.016;2023-10-19T12:11:14;5.47;;;2.00;;
26311;SDS011;14019;56.964;24.016;2023-10-19T12:14:07;5.80;;;2.40;;
26311;SDS011;14019;56.964;24.016;2023-10-19T12:17:00;4.25;;;2.10;;
26311;SDS011;14019;56.964;24.016;2023-10-19T12:19:47;6.82;;;2.15;;
26311;SDS011;14019;56.964;24.016;2023-10-19T12:22:34;6.50;;;2.65;;
26311;SDS011;14019;56.964;24.016;2023-10-19T12:25:25;4.93;;;2.38;;
26311;SDS011;14019;56.964;24.016;2023-10-19T12:28:27;6.18;;;2.55;;
26311;SDS011;14019;56.964;24.016;2023-10-19T12:34:25;6.15;;;2.47;;
26311;SDS011;14019;56.964;24.016;2023-10-19T12:37:16;6.75;;;2.80;;
26311;SDS011;14019;56.964;24.016;2023-10-19T12:40:17;5.13;;;2.60;;
26311;SDS011;14019;56.964;24.016;2023-10-19T12:43:23;6.75;;;3.08;;
26311;SDS011;14019;56.964;24.016;2023-10-19T12:46:10;7.60;;;2.95;;
26311;SDS011;14019;56.964;24.016;2023-10-19T12:48:59;7.78;;;3.55;;
26311;SDS011;14019;56.964;24.016;2023-10-19T12:51:46;7.15;;;2.88;;
26311;SDS011;14019;56.964;24.016;2023-10-19T12:54:33;6.55;;;3.00;;
26311;SDS011;14019;56.964;24.016;2023-10-19T12:57:25;5.97;;;2.92;;
26311;SDS011;14019;56.964;24.016;2023-10-19T13:00:12;6.35;;;3.15;;
26311;SDS011;14019;56.964;24.016;2023-10-19T13:03:18;5.80;;;2.97;;
26311;SDS011;14019;56.964;24.016;2023-10-19T13:10:27;6.05;;;2.92;;
26311;SDS011;14019;56.964;24.016;2023-10-19T13:13:15;5.40;;;3.20;;
26311;SDS011;14019;56.964;24.016;2023-10-19T13:16:06;7.55;;;3.35;;
26311;SDS011;14019;56.964;24.016;2023-10-19T13:18:55;7.38;;;3.30;;
26311;SDS011;14019;56.964;24.016;2023-10-19T13:21:41;7.32;;;2.88;;
26311;SDS011;14019;56.964;24.016;2023-10-19T13:27:34;7.30;;;2.90;;
26311;SDS011;14019;56.964;24.016;2023-10-19T13:30:20;7.72;;;3.08;;
26311;SDS011;14019;56.964;24.016;2023-10-19T13:33:09;10.05;;;3.30;;
26311;SDS011;14019;56.964;24.016;2023-10-19T13:35:55;6.85;;;3.15;;
26311;SDS011;14019;56.964;24.016;2023-10-19T13:38:43;8.43;;;3.30;;
26311;SDS011;14019;56.964;24.016;2023-10-19T13:41:36;8.50;;;3.33;;
26311;SDS011;14019;56.964;24.016;2023-10-19T13:44:25;6.20;;;3.03;;
26311;SDS011;14019;56.964;24.016;2023-10-19T13:47:12;7.28;;;3.50;;
26311;SDS011;14019;56.964;24.016;2023-10-19T13:50:02;11.23;;;3.47;;
26311;SDS011;14019;56.964;24.016;2023-10-19T13:52:53;7.88;;;3.28;;
26311;SDS011;14019;56.964;24.016;2023-10-19T13:55:41;7.10;;;3.13;;
26311;SDS011;14019;56.964;24.016;2023-10-19T13:58:27;5.85;;;3.25;;
26311;SDS011;14019;56.964;24.016;2023-10-19T14:01:17;7.25;;;2.90;;
26311;SDS011;14019;56.964;24.016;2023-10-19T14:04:06;7.05;;;3.17;;
26311;SDS011;14019;56.964;24.016;2023-10-19T14:06:56;6.10;;;2.65;;
26311;SDS011;14019;56.964;24.016;2023-10-19T14:09:46;6.95;;;3.10;;
26311;SDS011;14019;56.964;24.016;2023-10-19T14:12:35;9.50;;;4.03;;
26311;SDS011;14019;56.964;24.016;2023-10-19T14:15:21;7.13;;;3.38;;
26311;SDS011;14019;56.964;24.016;2023-10-19T14:18:09;7.72;;;4.00;;
26311;SDS011;14019;56.964;24.016;2023-10-19T14:21:10;15.80;;;5.88;;
26311;SDS011;14019;56.964;24.016;2023-10-19T14:24:18;14.20;;;6.30;;
26311;SDS011;14019;56.964;24.016;2023-10-19T14:27:05;16.77;;;6.05;;
26311;SDS011;14019;56.964;24.016;2023-10-19T14:30:30;14.02;;;6.55;;
26311;SDS011;14019;56.964;24.016;2023-10-19T14:33:16;13.90;;;6.20;;
26311;SDS011;14019;56.964;24.016;2023-10-19T14:36:04;12.10;;;5.22;;
26311;SDS011;14019;56.964;24.016;2023-10-19T14:38:51;15.65;;;5.60;;
26311;SDS011;14019;56.964;24.016;2023-10-19T14:41:49;11.77;;;5.70;;
26311;SDS011;14019;56.964;24.016;2023-10-19T14:44:37;10.65;;;5.40;;
26311;SDS011;14019;56.964;24.016;2023-10-19T14:47:27;11.43;;;4.72;;
26311;SDS011;14019;56.964;24.016;2023-10-19T14:50:13;7.53;;;3.78;;
26311;SDS011;14019;56.964;24.016;2023-10-19T14:53:09;9.75;;;4.70;;
26311;SDS011;14019;56.964;24.016;2023-10-19T14:55:56;12.55;;;4.65;;
26311;SDS011;14019;56.964;24.016;2023-10-19T14:58:43;10.75;;;5.13;;
26311;SDS011;14019;56.964;24.016;2023-10-19T15:01:29;12.20;;;5.13;;
26311;SDS011;14019;56.964;24.016;2023-10-19T15:04:16;11.82;;;4.93;;
26311;SDS011;14019;56.964;24.016;2023-10-19T15:07:02;9.82;;;4.38;;
26311;SDS011;14019;56.964;24.016;2023-10-19T15:09:49;11.48;;;4.90;;
26311;SDS011;14019;56.964;24.016;2023-10-19T15:12:38;11.50;;;4.65;;
26311;SDS011;14019;56.964;24.016;2023-10-19T15:15:25;13.80;;;5.03;;
26311;SDS011;14019;56.964;24.016;2023-10-19T15:18:11;11.18;;;4.53;;
26311;SDS011;14019;56.964;24.016;2023-10-19T15:21:08;10.98;;;4.20;;
26311;SDS011;14019;56.964;24.016;2023-10-19T15:23:54;10.05;;;4.65;;
26311;SDS011;14019;56.964;24.016;2023-10-19T15:26:40;13.65;;;4.88;;
26311;SDS011;14019;56.964;24.016;2023-10-19T15:29:27;12.15;;;4.70;;
26311;SDS011;14019;56.964;24.016;2023-10-19T15:32:14;9.98;;;4.13;;
26311;SDS011;14019;56.964;24.016;2023-10-19T15:35:00;9.57;;;4.80;;
26311;SDS011;14019;56.964;24.016;2023-10-19T15:37:48;10.20;;;3.70;;
26311;SDS011;14019;56.964;24.016;2023-10-19T15:40:38;12.82;;;3.67;;
26311;SDS011;14019;56.964;24.016;2023-10-19T15:43:25;6.18;;;3.00;;
26311;SDS011;14019;56.964;24.016;2023-10-19T15:46:14;8.75;;;2.78;;
26311;SDS011;14019;56.964;24.016;2023-10-19T15:49:01;5.72;;;2.60;;
26311;SDS011;14019;56.964;24.016;2023-10-19T15:51:47;6.18;;;3.25;;
26311;SDS011;14019;56.964;24.016;2023-10-19T15:54:34;8.02;;;2.95;;
26311;SDS011;14019;56.964;24.016;2023-10-19T15:57:22;5.85;;;2.83;;
26311;SDS011;14019;56.964;24.016;2023-10-19T16:00:10;7.32;;;2.90;;
26311;SDS011;14019;56.964;24.016;2023-10-19T16:03:00;8.23;;;3.35;;
26311;SDS011;14019;56.964;24.016;2023-10-19T16:05:47;8.27;;;2.95;;
26311;SDS011;14019;56.964;24.016;2023-10-19T16:08:33;11.38;;;3.47;;
26311;SDS011;14019;56.964;24.016;2023-10-19T16:11:21;7.20;;;3.75;;
26311;SDS011;14019;56.964;24.016;2023-10-19T16:14:09;5.13;;;2.60;;
26311;SDS011;14019;56.964;24.016;2023-10-19T16:16:57;6.30;;;3.10;;
26311;SDS011;14019;56.964;24.016;2023-10-19T16:19:43;6.97;;;3.20;;
26311;SDS011;14019;56.964;24.016;2023-10-19T16:22:30;7.82;;;2.70;;
26311;SDS011;14019;56.964;24.016;2023-10-19T16:25:17;5.15;;;2.83;;
26311;SDS011;14019;56.964;24.016;2023-10-19T16:28:05;5.63;;;2.60;;
26311;SDS011;14019;56.964;24.016;2023-10-19T16:30:51;6.10;;;2.63;;
26311;SDS011;14019;56.964;24.016;2023-10-19T16:33:38;7.88;;;2.70;;
26311;SDS011;14019;56.964;24.016;2023-10-19T16:36:26;6.45;;;2.83;;
26311;SDS011;14019;56.964;24.016;2023-10-19T16:39:16;5.25;;;2.33;;
26311;SDS011;14019;56.964;24.016;2023-10-19T16:42:02;9.02;;;3.00;;
26311;SDS011;14019;56.964;24.016;2023-10-19T16:44:48;6.78;;;2.83;;
26311;SDS011;14019;56.964;24.016;2023-10-19T16:47:37;6.43;;;3.33;;
26311;SDS011;14019;56.964;24.016;2023-10-19T16:50:28;7.40;;;2.90;;
26311;SDS011;14019;56.964;24.016;2023-10-19T16:53:14;10.05;;;3.33;;
26311;SDS011;14019;56.964;24.016;2023-10-19T16:56:01;9.15;;;3.35;;
26311;SDS011;14019;56.964;24.016;2023-10-19T16:58:47;9.20;;;3.58;;